Time;durP1;ratioP1;P1;durP2;ratioP2;P2;SDS_P1;SDS_P2;PMS_P1;PMS_P2;Temp;Humidity;BMP_temperature;BMP_pressure;BME280_temperature;BME280_humidity;BME280_pressure;Samples;Min_cycle;Max_cycle;Signal;HPM_P1;HPM_P2
2023/07/29 00:00:10;;;;;;;11.70;7.60;;;;;;;-145.50;100.00;65435.88;4980833;28;20092;-69
2023/07/29 00:02:39;;;;;;;10.27;7.35;;;;;;;-145.50;100.00;65435.88;4978254;28;20059;-68
2023/07/29 00:05:06;;;;;;;9.05;6.93;;;;;;;-145.50;100.00;65435.88;4969568;28;20065;-68
2023/07/29 00:07:33;;;;;;;10.63;7.25;;;;;;;-145.50;100.00;65435.88;4953462;28;20058;-69
2023/07/29 00:09:59;;;;;;;8.73;6.43;;;;;;;-145.50;100.00;65435.88;4963382;28;20058;-69
2023/07/29 00:12:26;;;;;;;9.32;6.85;;;;;;;-145.50;100.00;65435.88;4985312;28;20042;-69
2023/07/29 00:14:52;;;;;;;9.18;6.90;;;;;;;-145.50;100.00;65435.88;4966429;28;20113;-68
2023/07/29 00:17:19;;;;;;;9.95;6.80;;;;;;;-145.50;100.00;65435.88;4955347;28;20515;-68
2023/07/29 00:19:46;;;;;;;9.50;7.40;;;;;;;-145.50;100.00;65435.88;4978607;28;20574;-68
2023/07/29 00:22:13;;;;;;;11.07;6.88;;;;;;;-145.50;100.00;65435.88;4978728;28;20296;-68
2023/07/29 00:24:40;;;;;;;10.95;6.47;;;;;;;-145.50;100.00;65435.88;4980149;28;20112;-68
2023/07/29 00:27:07;;;;;;;8.00;6.13;;;;;;;-145.50;100.00;65435.88;4979073;28;20615;-70
2023/07/29 00:29:33;;;;;;;10.85;6.85;;;;;;;-145.50;100.00;65435.88;4983692;28;20462;-68
2023/07/29 00:32:00;;;;;;;10.95;7.13;;;;;;;-145.50;100.00;65435.88;4986355;28;20054;-69
2023/07/29 00:34:26;;;;;;;7.93;6.80;;;;;;;-145.50;100.00;65435.88;4977470;28;20046;-69
2023/07/29 00:36:53;;;;;;;11.80;8.95;;;;;;;-145.50;100.00;65435.88;4984323;28;20202;-68
2023/07/29 00:39:19;;;;;;;10.48;7.68;;;;;;;-145.50;100.00;65435.88;4979583;28;20164;-68
2023/07/29 00:41:46;;;;;;;10.18;7.40;;;;;;;-145.50;100.00;65435.88;4993583;28;20090;-69
2023/07/29 00:44:12;;;;;;;11.77;7.53;;;;;;;-145.50;100.00;65435.88;4976474;28;20067;-68
2023/07/29 00:46:41;;;;;;;9.68;6.82;;;;;;;-145.50;100.00;65435.88;4962079;28;20582;-69
2023/07/29 00:49:07;;;;;;;10.30;6.68;;;;;;;-145.50;100.00;65435.88;4986863;28;20092;-69
2023/07/29 00:51:34;;;;;;;10.05;6.25;;;;;;;-145.50;100.00;65435.88;4977457;28;20062;-68
2023/07/29 00:54:02;;;;;;;7.32;5.57;;;;;;;-145.50;100.00;65435.88;4981872;28;20061;-69
2023/07/29 00:56:28;;;;;;;7.37;5.60;;;;;;;-145.50;100.00;65435.88;4973676;28;20715;-68
2023/07/29 00:58:58;;;;;;;10.00;6.93;;;;;;;-145.50;100.00;65435.88;4976371;28;20126;-69
2023/07/29 01:01:25;;;;;;;10.15;7.07;;;;;;;-145.50;100.00;65435.88;4988816;28;20613;-69
2023/07/29 01:03:52;;;;;;;11.95;6.78;;;;;;;-145.50;100.00;65435.88;4987819;28;20054;-69
2023/07/29 01:06:21;;;;;;;10.88;6.90;;;;;;;-145.50;100.00;65435.88;4986203;28;20046;-69
2023/07/29 01:09:01;;;;;;;10.68;7.13;;;;;;;-145.50;100.00;65435.88;4979705;28;20054;-71
2023/07/29 01:11:52;;;;;;;10.10;6.05;;;;;;;-145.50;100.00;65435.88;4983231;28;20057;-68
2023/07/29 01:14:31;;;;;;;7.95;6.13;;;;;;;-145.50;100.00;65435.88;4961629;28;20054;-70
2023/07/29 01:17:04;;;;;;;9.68;6.07;;;;;;;-145.50;100.00;65435.88;4976460;28;20061;-69
2023/07/29 01:20:06;;;;;;;9.07;6.53;;;;;;;-145.50;100.00;65435.88;4961984;28;20058;-69
2023/07/29 01:22:35;;;;;;;13.25;7.75;;;;;;;-145.50;100.00;65435.88;4986491;28;20573;-70
2023/07/29 01:25:02;;;;;;;12.07;7.05;;;;;;;-145.50;100.00;65435.88;4973685;28;20038;-68
2023/07/29 01:27:29;;;;;;;10.57;7.97;;;;;;;-145.50;100.00;65435.88;4979199;28;20049;-69
2023/07/29 01:29:57;;;;;;;10.05;7.13;;;;;;;-145.50;100.00;65435.88;4984744;28;20280;-69
2023/07/29 01:32:52;;;;;;;9.70;6.70;;;;;;;-145.50;100.00;65435.88;4980069;28;20058;-69
2023/07/29 01:35:28;;;;;;;8.52;6.57;;;;;;;-145.50;100.00;65435.88;4986068;28;20057;-69
2023/07/29 01:37:59;;;;;;;10.80;7.05;;;;;;;-145.50;100.00;65435.88;4979463;28;20101;-69
2023/07/29 01:40:28;;;;;;;8.48;6.57;;;;;;;-145.50;100.00;65435.88;4973632;28;20134;-70
2023/07/29 01:42:54;;;;;;;11.75;7.78;;;;;;;-145.50;100.00;65435.88;4978291;28;20562;-68
2023/07/29 01:45:27;;;;;;;10.50;7.65;;;;;;;-145.50;100.00;65435.88;4969299;28;20097;-69
2023/07/29 01:47:54;;;;;;;8.23;7.00;;;;;;;-145.50;100.00;65435.88;4977206;28;20499;-68
2023/07/29 01:50:21;;;;;;;10.73;7.05;;;;;;;-145.50;100.00;65435.88;4985078;28;20108;-69
2023/07/29 01:52:47;;;;;;;9.00;7.20;;;;;;;-145.50;100.00;65435.88;4978177;28;20086;-68
2023/07/29 01:55:14;;;;;;;11.80;7.70;;;;;;;-145.50;100.00;65435.88;4955963;28;20145;-68
2023/07/29 01:57:40;;;;;;;10.52;7.72;;;;;;;-145.50;100.00;65435.88;4987363;28;20053;-70
2023/07/29 02:00:07;;;;;;;10.77;8.00;;;;;;;-145.50;100.00;65435.88;4974716;28;20069;-70
2023/07/29 02:02:34;;;;;;;11.02;6.97;;;;;;;-145.50;100.00;65435.88;4985854;28;20054;-69
2023/07/29 02:05:01;;;;;;;11.38;6.85;;;;;;;-145.50;100.00;65435.88;4979346;28;20174;-70
2023/07/29 02:07:27;;;;;;;11.45;7.07;;;;;;;-145.50;100.00;65435.88;4979627;28;20612;-68
2023/07/29 02:09:54;;;;;;;9.88;7.38;;;;;;;-145.50;100.00;65435.88;4985791;28;20062;-68
2023/07/29 02:12:20;;;;;;;9.68;7.47;;;;;;;-145.50;100.00;65435.88;4972011;28;20058;-69
2023/07/29 02:14:47;;;;;;;10.77;7.55;;;;;;;-145.50;100.00;65435.88;4984217;28;20050;-69
2023/07/29 02:17:13;;;;;;;11.52;7.85;;;;;;;-145.50;100.00;65435.88;4979200;28;20466;-68
2023/07/29 02:19:40;;;;;;;10.32;8.13;;;;;;;-145.50;100.00;65435.88;4978903;28;20061;-70
2023/07/29 02:22:06;;;;;;;11.60;8.23;;;;;;;-145.50;100.00;65435.88;4973225;28;20262;-69
2023/07/29 02:24:33;;;;;;;9.88;7.90;;;;;;;-145.50;100.00;65435.88;4977676;28;20054;-69
2023/07/29 02:26:59;;;;;;;11.70;9.00;;;;;;;-145.50;100.00;65435.88;4968251;28;20056;-68
2023/07/29 02:29:26;;;;;;;13.15;9.75;;;;;;;-145.50;100.00;65435.88;4975707;28;20054;-68
2023/07/29 02:31:52;;;;;;;13.25;9.23;;;;;;;-145.50;100.00;65435.88;4977966;28;20097;-68
2023/07/29 02:34:19;;;;;;;13.38;10.27;;;;;;;-145.50;100.00;65435.88;4977149;28;20463;-70
2023/07/29 02:36:46;;;;;;;12.73;9.70;;;;;;;-145.50;100.00;65435.88;4983529;28;20062;-70
2023/07/29 02:39:12;;;;;;;15.00;10.30;;;;;;;-145.50;100.00;65435.88;4984165;28;20051;-70
2023/07/29 02:41:39;;;;;;;20.73;10.93;;;;;;;-145.50;100.00;65435.88;4967620;28;20054;-70
2023/07/29 02:44:06;;;;;;;13.02;9.95;;;;;;;-145.50;100.00;65435.88;4983775;28;20070;-70
2023/07/29 02:46:33;;;;;;;16.67;10.50;;;;;;;-145.50;100.00;65435.88;4974739;28;20129;-69
2023/07/29 02:49:02;;;;;;;15.50;9.33;;;;;;;-145.50;100.00;65435.88;4984455;28;20291;-68
2023/07/29 02:51:30;;;;;;;13.90;9.65;;;;;;;-145.50;100.00;65435.88;4962010;28;20054;-70
2023/07/29 02:53:57;;;;;;;12.93;8.10;;;;;;;-145.50;100.00;65435.88;4984708;28;20050;-68
2023/07/29 02:56:23;;;;;;;13.55;9.15;;;;;;;-145.50;100.00;65435.88;4965778;28;20220;-68
2023/07/29 02:58:53;;;;;;;12.35;8.55;;;;;;;-145.50;100.00;65435.88;4974834;28;20065;-69
2023/07/29 03:01:19;;;;;;;13.70;9.13;;;;;;;-145.50;100.00;65435.88;4985227;28;20101;-68
2023/07/29 03:03:46;;;;;;;9.68;7.45;;;;;;;-145.50;100.00;65435.88;4979745;28;20170;-68
2023/07/29 03:06:14;;;;;;;16.27;8.98;;;;;;;-145.50;100.00;65435.88;4977709;28;20097;-68
2023/07/29 03:08:40;;;;;;;11.77;8.60;;;;;;;-145.50;100.00;65435.88;4975062;28;20086;-69
2023/07/29 03:11:17;;;;;;;16.70;8.30;;;;;;;-145.50;100.00;65435.88;4980421;28;20081;-68
2023/07/29 03:13:44;;;;;;;12.55;7.57;;;;;;;-145.50;100.00;65435.88;4984756;28;20128;-68
2023/07/29 03:16:15;;;;;;;10.88;7.38;;;;;;;-145.50;100.00;65435.88;4978723;28;20182;-67
2023/07/29 03:18:43;;;;;;;9.32;7.18;;;;;;;-145.50;100.00;65435.88;4984263;28;20058;-69
2023/07/29 03:21:10;;;;;;;10.85;6.53;;;;;;;-145.50;100.00;65435.88;4978541;28;20395;-68
2023/07/29 03:23:38;;;;;;;8.13;6.50;;;;;;;-145.50;100.00;65435.88;4980157;28;20140;-67
2023/07/29 03:26:11;;;;;;;9.48;6.30;;;;;;;-145.50;100.00;65435.88;4967937;28;20134;-69
2023/07/29 03:28:40;;;;;;;10.23;6.10;;;;;;;-145.50;100.00;65435.88;4980351;28;20057;-68
2023/07/29 03:31:07;;;;;;;7.53;5.18;;;;;;;-145.50;100.00;65435.88;4978600;28;20101;-69
2023/07/29 03:33:34;;;;;;;10.65;5.55;;;;;;;-145.50;100.00;65435.88;4977289;28;20054;-68
2023/07/29 03:36:01;;;;;;;8.85;5.30;;;;;;;-145.50;100.00;65435.88;4975488;28;20051;-69
2023/07/29 03:38:27;;;;;;;9.20;5.18;;;;;;;-145.50;100.00;65435.88;4970746;28;20062;-70
2023/07/29 03:40:54;;;;;;;8.18;5.45;;;;;;;-145.50;100.00;65435.88;4971726;28;20058;-68
2023/07/29 03:43:20;;;;;;;8.40;4.78;;;;;;;-145.50;100.00;65435.88;4979161;28;20500;-68
2023/07/29 03:45:47;;;;;;;8.05;4.43;;;;;;;-145.50;100.00;65435.88;4984423;28;20054;-70
2023/07/29 03:48:14;;;;;;;8.13;4.45;;;;;;;-145.50;100.00;65435.88;4984521;28;20054;-68
2023/07/29 03:50:40;;;;;;;7.43;4.55;;;;;;;-145.50;100.00;65435.88;4971442;28;20058;-70
2023/07/29 03:53:07;;;;;;;7.60;4.90;;;;;;;-145.50;100.00;65435.88;4989955;28;20333;-68
2023/07/29 03:55:33;;;;;;;6.93;3.88;;;;;;;-145.50;100.00;65435.88;4985280;28;20142;-68
2023/07/29 03:58:00;;;;;;;7.15;4.10;;;;;;;-145.50;100.00;65435.88;4967596;28;20505;-69
2023/07/29 04:00:27;;;;;;;5.97;3.78;;;;;;;-145.50;100.00;65435.88;4974897;28;20069;-69
2023/07/29 04:02:53;;;;;;;8.02;4.03;;;;;;;-145.50;100.00;65435.88;4980729;28;20442;-68
2023/07/29 04:05:20;;;;;;;4.85;3.40;;;;;;;-145.50;100.00;65435.88;4970722;28;20054;-70
2023/07/29 04:07:47;;;;;;;7.40;4.18;;;;;;;-145.50;100.00;65435.88;4975285;28;20427;-68
2023/07/29 04:10:13;;;;;;;8.93;4.35;;;;;;;-145.50;100.00;65435.88;4993300;28;20108;-69
2023/07/29 04:12:40;;;;;;;6.13;3.75;;;;;;;-145.50;100.00;65435.88;4958289;28;20577;-70
2023/07/29 04:15:07;;;;;;;7.60;3.22;;;;;;;-145.50;100.00;65435.88;4982921;28;20267;-70
2023/07/29 04:17:34;;;;;;;7.38;3.38;;;;;;;-145.50;100.00;65435.88;4977709;28;20542;-69
2023/07/29 04:20:01;;;;;;;6.25;3.20;;;;;;;-145.50;100.00;65435.88;4984212;28;20050;-70
2023/07/29 04:22:28;;;;;;;7.00;3.65;;;;;;;-145.50;100.00;65435.88;4975730;28;20058;-68
2023/07/29 04:24:54;;;;;;;6.20;3.05;;;;;;;-145.50;100.00;65435.88;4981752;28;20053;-69
2023/07/29 04:27:21;;;;;;;6.13;3.00;;;;;;;-145.50;100.00;65435.88;4984947;28;20054;-68
2023/07/29 04:29:47;;;;;;;4.47;2.65;;;;;;;-145.50;100.00;65435.88;4978317;28;20054;-69
2023/07/29 04:32:14;;;;;;;6.28;3.00;;;;;;;-145.50;100.00;65435.88;4981180;28;20771;-68
2023/07/29 04:34:40;;;;;;;5.85;2.80;;;;;;;-145.50;100.00;65435.88;4979411;28;20074;-70
2023/07/29 04:37:07;;;;;;;6.32;2.97;;;;;;;-145.50;100.00;65435.88;4987422;28;20050;-68
2023/07/29 04:39:33;;;;;;;3.53;2.53;;;;;;;-145.50;100.00;65435.88;4988106;28;20057;-68
2023/07/29 04:42:00;;;;;;;5.65;2.80;;;;;;;-145.50;100.00;65435.88;4971978;28;20142;-69
2023/07/29 04:44:27;;;;;;;5.78;2.55;;;;;;;-145.50;100.00;65435.88;4984423;28;20050;-69
2023/07/29 04:46:53;;;;;;;6.90;2.85;;;;;;;-145.50;100.00;65435.88;4965197;28;20258;-69
2023/07/29 04:49:20;;;;;;;5.95;2.70;;;;;;;-145.50;100.00;65435.88;4985939;28;20140;-69
2023/07/29 04:51:46;;;;;;;6.80;2.63;;;;;;;-145.50;100.00;65435.88;4982680;28;20187;-69
2023/07/29 04:54:13;;;;;;;5.03;2.65;;;;;;;-145.50;100.00;65435.88;4965509;28;20460;-69
2023/07/29 04:56:39;;;;;;;4.85;2.28;;;;;;;-145.50;100.00;65435.88;4980299;28;20483;-70
2023/07/29 04:59:08;;;;;;;4.85;2.60;;;;;;;-145.50;100.00;65435.88;4974661;28;20097;-68
2023/07/29 05:01:35;;;;;;;4.13;2.70;;;;;;;-145.50;100.00;65435.88;4983398;28;20066;-69
2023/07/29 05:04:02;;;;;;;2.83;2.05;;;;;;;-145.50;100.00;65435.88;4976721;28;20590;-69
2023/07/29 05:06:28;;;;;;;5.13;2.47;;;;;;;-145.50;100.00;65435.88;4976125;28;20077;-69
2023/07/29 05:08:57;;;;;;;4.10;2.15;;;;;;;-145.50;100.00;65435.88;4975591;28;20062;-69
2023/07/29 05:11:25;;;;;;;7.28;2.75;;;;;;;-145.50;100.00;65435.88;4993378;28;20096;-69
2023/07/29 05:13:51;;;;;;;4.47;2.70;;;;;;;-145.50;100.00;65435.88;4980898;28;20162;-70
2023/07/29 05:16:18;;;;;;;4.65;2.63;;;;;;;-145.50;100.00;65435.88;4968010;28;20046;-69
2023/07/29 05:18:44;;;;;;;4.53;2.28;;;;;;;-145.50;100.00;65435.88;4969314;28;20054;-69
2023/07/29 05:21:14;;;;;;;4.55;2.53;;;;;;;-145.50;100.00;65435.88;4975482;28;20057;-70
2023/07/29 05:23:40;;;;;;;3.75;2.40;;;;;;;-145.50;100.00;65435.88;4984457;28;20416;-70
2023/07/29 05:26:07;;;;;;;5.80;2.63;;;;;;;-145.50;100.00;65435.88;4975775;28;20278;-70
2023/07/29 05:28:33;;;;;;;6.38;3.25;;;;;;;-145.50;100.00;65435.88;4978164;28;20126;-69
2023/07/29 05:31:01;;;;;;;4.03;2.35;;;;;;;-145.50;100.00;65435.88;4990607;28;20141;-68
2023/07/29 05:33:28;;;;;;;6.00;2.90;;;;;;;-145.50;100.00;65435.88;4974941;28;20062;-69
2023/07/29 05:35:55;;;;;;;5.35;3.22;;;;;;;-145.50;100.00;65435.88;4988510;28;20396;-69
2023/07/29 05:38:21;;;;;;;4.78;2.88;;;;;;;-145.50;100.00;65435.88;4989244;28;20265;-69
2023/07/29 05:40:48;;;;;;;5.32;3.00;;;;;;;-145.50;100.00;65435.88;4986028;28;20050;-70
2023/07/29 05:43:15;;;;;;;7.15;3.45;;;;;;;-145.50;100.00;65435.88;4958711;28;20058;-68
2023/07/29 05:45:42;;;;;;;3.67;3.03;;;;;;;-145.50;100.00;65435.88;4983870;28;20415;-68
2023/07/29 05:48:08;;;;;;;6.40;3.90;;;;;;;-145.50;100.00;65435.88;4966178;28;20122;-70
2023/07/29 05:50:37;;;;;;;5.60;3.30;;;;;;;-145.50;100.00;65435.88;4970813;28;20085;-69
2023/07/29 05:53:03;;;;;;;5.82;3.65;;;;;;;-145.50;100.00;65435.88;4972160;28;20059;-67
2023/07/29 05:55:30;;;;;;;8.65;4.40;;;;;;;-145.50;100.00;65435.88;4968751;28;20050;-69
2023/07/29 05:57:57;;;;;;;6.85;4.13;;;;;;;-145.50;100.00;65435.88;4979309;28;20140;-69
2023/07/29 06:00:24;;;;;;;4.95;3.58;;;;;;;-145.50;100.00;65435.88;4980787;28;20113;-70
2023/07/29 06:02:50;;;;;;;7.65;3.90;;;;;;;-145.50;100.00;65435.88;4980161;28;20050;-68
2023/07/29 06:05:17;;;;;;;7.85;3.95;;;;;;;-145.50;100.00;65435.88;4978514;28;20148;-69
2023/07/29 06:07:44;;;;;;;8.15;4.13;;;;;;;-145.50;100.00;65435.88;4961695;28;20061;-69
2023/07/29 06:10:19;;;;;;;7.03;3.83;;;;;;;-145.50;100.00;65435.88;4979206;28;20070;-69
2023/07/29 06:12:46;;;;;;;6.93;3.80;;;;;;;-145.50;100.00;65435.88;4978379;28;20061;-70
2023/07/29 06:15:13;;;;;;;6.82;4.00;;;;;;;-145.50;100.00;65435.88;4984698;28;20077;-69
2023/07/29 06:17:40;;;;;;;7.90;4.38;;;;;;;-145.50;100.00;65435.88;4968225;28;20085;-70
2023/07/29 06:20:08;;;;;;;7.22;4.10;;;;;;;-145.50;100.00;65435.88;4982981;28;20325;-69
2023/07/29 06:22:34;;;;;;;9.25;4.38;;;;;;;-145.50;100.00;65435.88;4975420;28;20062;-69
2023/07/29 06:25:01;;;;;;;7.35;4.65;;;;;;;-145.50;100.00;65435.88;4973536;28;20058;-69
2023/07/29 06:27:27;;;;;;;8.73;4.30;;;;;;;-145.50;100.00;65435.88;4983361;28;20054;-70
2023/07/29 06:29:54;;;;;;;11.70;4.13;;;;;;;-145.50;100.00;65435.88;4974559;28;20074;-69
2023/07/29 06:32:21;;;;;;;8.40;4.00;;;;;;;-145.50;100.00;65435.88;4968684;28;20485;-70
2023/07/29 06:34:47;;;;;;;7.78;4.60;;;;;;;-145.50;100.00;65435.88;4977802;28;20050;-69
2023/07/29 06:37:14;;;;;;;8.60;4.38;;;;;;;-145.50;100.00;65435.88;4981260;28;20096;-69
2023/07/29 06:39:41;;;;;;;7.35;4.65;;;;;;;-145.50;100.00;65435.88;4981030;28;20054;-68
2023/07/29 06:42:07;;;;;;;8.73;4.40;;;;;;;-145.50;100.00;65435.88;4980183;28;20550;-68
2023/07/29 06:44:34;;;;;;;7.30;4.55;;;;;;;-145.50;100.00;65435.88;4981406;28;20058;-69
2023/07/29 06:47:00;;;;;;;9.20;4.72;;;;;;;-145.50;100.00;65435.88;4978328;28;20062;-69
2023/07/29 06:49:27;;;;;;;8.95;4.88;;;;;;;-145.50;100.00;65435.88;4967642;28;20051;-68
2023/07/29 06:51:53;;;;;;;10.60;4.03;;;;;;;-145.50;100.00;65435.88;4955665;28;20085;-69
2023/07/29 06:54:24;;;;;;;6.60;4.07;;;;;;;-145.50;100.00;65435.88;4975328;28;20074;-68
2023/07/29 06:56:50;;;;;;;8.45;4.53;;;;;;;-145.50;100.00;65435.88;4971436;28;20062;-68
2023/07/29 06:59:17;;;;;;;7.45;4.15;;;;;;;-145.50;100.00;65435.88;4960863;28;20500;-70
2023/07/29 07:01:43;;;;;;;7.18;4.47;;;;;;;-145.50;100.00;65435.88;4981370;28;20491;-70
2023/07/29 07:04:10;;;;;;;8.18;3.88;;;;;;;-145.50;100.00;65435.88;4975750;28;20066;-71
2023/07/29 07:06:36;;;;;;;8.35;4.15;;;;;;;-145.50;100.00;65435.88;4973424;28;20090;-69
2023/07/29 07:09:04;;;;;;;7.82;5.00;;;;;;;-145.50;100.00;65435.88;4962543;28;20734;-67
2023/07/29 07:11:30;;;;;;;8.35;4.85;;;;;;;-145.50;100.00;65435.88;4974565;28;20059;-69
2023/07/29 07:13:57;;;;;;;15.88;4.60;;;;;;;-145.50;100.00;65435.88;4981899;28;20097;-67
2023/07/29 07:16:23;;;;;;;8.82;4.25;;;;;;;-145.50;100.00;65435.88;4986120;28;20490;-68
2023/07/29 07:18:50;;;;;;;8.27;4.78;;;;;;;-145.50;100.00;65435.88;4953452;28;20192;-68
2023/07/29 07:21:17;;;;;;;9.60;5.20;;;;;;;-145.50;100.00;65435.88;4972450;28;20137;-69
2023/07/29 07:23:43;;;;;;;9.93;5.90;;;;;;;-145.50;100.00;65435.88;4988688;28;20050;-69
2023/07/29 07:26:10;;;;;;;6.38;4.88;;;;;;;-145.50;100.00;65435.88;4983660;28;20101;-68
2023/07/29 07:28:36;;;;;;;7.80;5.93;;;;;;;-145.50;100.00;65435.88;4982211;28;20054;-68
2023/07/29 07:31:03;;;;;;;7.75;5.35;;;;;;;-145.50;100.00;65435.88;4975877;28;20050;-67
2023/07/29 07:33:29;;;;;;;8.98;5.80;;;;;;;-145.50;100.00;65435.88;4967991;28;20073;-68
2023/07/29 07:35:56;;;;;;;10.15;6.25;;;;;;;-145.50;100.00;65435.88;4976165;28;20140;-69
2023/07/29 07:38:22;;;;;;;9.18;6.10;;;;;;;-145.50;100.00;65435.88;4966847;28;20082;-70
2023/07/29 07:40:54;;;;;;;6.47;5.75;;;;;;;-145.50;100.00;65435.88;4984582;28;20058;-69
2023/07/29 07:43:21;;;;;;;9.00;6.00;;;;;;;-145.50;100.00;65435.88;4978603;28;20506;-68
2023/07/29 07:45:48;;;;;;;11.40;5.57;;;;;;;-145.50;100.00;65435.88;4983976;28;21235;-69
2023/07/29 07:48:16;;;;;;;7.57;5.60;;;;;;;-145.50;100.00;65435.88;4978661;28;20609;-71
2023/07/29 07:50:43;;;;;;;;;;;;;;;-145.50;100.00;65435.88;4974000;28;20072;-69
2023/07/29 07:53:09;;;;;;;7.32;6.03;;;;;;;-145.50;100.00;65435.88;4984420;28;19932;-71
2023/07/29 07:55:38;;;;;;;8.05;5.72;;;;;;;-145.50;100.00;65435.88;4977462;28;20443;-70
2023/07/29 07:58:05;;;;;;;8.38;6.07;;;;;;;-145.50;100.00;65435.88;4971010;28;20050;-70
2023/07/29 08:00:32;;;;;;;9.30;5.20;;;;;;;-145.50;100.00;65435.88;4956575;28;20050;-71
2023/07/29 08:03:01;;;;;;;7.32;5.60;;;;;;;-145.50;100.00;65435.88;4961724;28;20262;-70
2023/07/29 08:05:28;;;;;;;8.65;5.72;;;;;;;-145.50;100.00;65435.88;4982415;28;20065;-70
2023/07/29 08:07:57;;;;;;;7.25;5.35;;;;;;;-145.50;100.00;65435.88;4972009;28;20679;-70
2023/07/29 08:10:23;;;;;;;7.25;5.90;;;;;;;-145.50;100.00;65435.88;4983969;28;20051;-69
2023/07/29 08:12:50;;;;;;;7.20;5.20;;;;;;;-145.50;100.00;65435.88;4976844;28;20054;-69
2023/07/29 08:15:17;;;;;;;6.63;5.00;;;;;;;-145.50;100.00;65435.88;4978289;28;20100;-70
2023/07/29 08:17:43;;;;;;;5.97;4.97;;;;;;;-145.50;100.00;65435.88;4973076;28;20116;-70
2023/07/29 08:20:10;;;;;;;6.63;4.65;;;;;;;-145.50;100.00;65435.88;4982792;28;20054;-71
2023/07/29 08:22:36;;;;;;;6.50;4.10;;;;;;;-145.50;100.00;65435.88;4985138;28;20145;-69
2023/07/29 08:25:03;;;;;;;6.25;4.28;;;;;;;-145.50;100.00;65435.88;4964893;28;20436;-69
2023/07/29 08:27:30;;;;;;;8.27;4.32;;;;;;;-145.50;100.00;65435.88;4982336;28;20050;-69
2023/07/29 08:29:57;;;;;;;4.15;3.38;;;;;;;-145.50;100.00;65435.88;4969133;28;20645;-69
2023/07/29 08:32:23;;;;;;;7.15;3.90;;;;;;;-145.50;100.00;65435.88;4970236;28;20108;-69
2023/07/29 08:34:50;;;;;;;3.97;3.13;;;;;;;-145.50;100.00;65435.88;4979370;28;20050;-72
2023/07/29 08:37:17;;;;;;;3.72;2.85;;;;;;;-145.50;100.00;65435.88;4979556;28;20136;-70
2023/07/29 08:39:43;;;;;;;6.22;3.13;;;;;;;-145.50;100.00;65435.88;4982787;28;20085;-70
2023/07/29 08:42:11;;;;;;;6.18;3.28;;;;;;;-145.50;100.00;65435.88;4979283;28;20157;-69
2023/07/29 08:44:43;;;;;;;4.55;3.10;;;;;;;-145.50;100.00;65435.88;4962920;28;20116;-71
2023/07/29 08:47:10;;;;;;;4.35;2.53;;;;;;;-145.50;100.00;65435.88;4953220;28;20356;-71
2023/07/29 08:49:38;;;;;;;3.83;2.42;;;;;;;-145.50;100.00;65435.88;4976664;28;20135;-70
2023/07/29 08:52:06;;;;;;;5.80;3.10;;;;;;;-145.50;100.00;65435.88;4960740;28;20101;-68
2023/07/29 08:54:33;;;;;;;4.93;3.03;;;;;;;-145.50;100.00;65435.88;4979917;28;20122;-68
2023/07/29 08:57:00;;;;;;;4.28;2.92;;;;;;;-145.50;100.00;65435.88;4958218;28;20291;-69
2023/07/29 08:59:28;;;;;;;4.18;3.08;;;;;;;-145.50;100.00;65435.88;4965617;28;20054;-69
2023/07/29 09:01:57;;;;;;;4.45;2.60;;;;;;;-145.50;100.00;65435.88;4991180;28;20056;-68
2023/07/29 09:04:24;;;;;;;5.25;2.92;;;;;;;-145.50;100.00;65435.88;4989083;28;20050;-69
2023/07/29 09:06:53;;;;;;;4.13;2.97;;;;;;;-145.50;100.00;65435.88;4986429;28;20052;-69
2023/07/29 09:09:20;;;;;;;4.30;2.40;;;;;;;-145.50;100.00;65435.88;4986453;28;20077;-71
2023/07/29 09:11:48;;;;;;;6.13;3.30;;;;;;;-145.50;100.00;65435.88;4969284;28;20551;-69
2023/07/29 09:14:14;;;;;;;3.15;2.25;;;;;;;-145.50;100.00;65435.88;4986163;28;20136;-69
2023/07/29 09:16:41;;;;;;;5.13;2.50;;;;;;;-145.50;100.00;65435.88;4979552;28;20050;-69
2023/07/29 09:19:08;;;;;;;4.40;2.35;;;;;;;-145.50;100.00;65435.88;4986766;28;20062;-71
2023/07/29 09:21:39;;;;;;;5.00;2.30;;;;;;;-145.50;100.00;65435.88;4963439;28;20145;-70
2023/07/29 09:24:07;;;;;;;3.03;2.08;;;;;;;-145.50;100.00;65435.88;4985874;28;20050;-69
2023/07/29 09:26:34;;;;;;;;;;;;;;;-145.50;100.00;65435.88;4986288;28;20042;-70
2023/07/29 09:29:01;;;;;;;3.73;2.20;;;;;;;-145.50;100.00;65435.88;4967403;28;20787;-71
2023/07/29 09:31:28;;;;;;;6.13;2.40;;;;;;;-145.50;100.00;65435.88;4978517;28;20054;-70
2023/07/29 09:33:57;;;;;;;4.30;2.17;;;;;;;-145.50;100.00;65435.88;4974769;28;20112;-72
2023/07/29 09:36:24;;;;;;;6.30;2.20;;;;;;;-145.50;100.00;65435.88;4975533;28;20097;-70
2023/07/29 09:38:56;;;;;;;3.55;2.10;;;;;;;-145.50;100.00;65435.88;4973465;28;20089;-71
2023/07/29 09:41:24;;;;;;;4.18;1.98;;;;;;;-145.50;100.00;65435.88;4988223;28;20109;-70
2023/07/29 09:44:01;;;;;;;4.00;2.10;;;;;;;-145.50;100.00;65435.88;4984188;28;20054;-70
2023/07/29 09:46:36;;;;;;;5.32;2.35;;;;;;;-145.50;100.00;65435.88;4974149;28;20046;-68
2023/07/29 09:49:05;;;;;;;3.83;2.63;;;;;;;-145.50;100.00;65435.88;4981231;28;20084;-68
2023/07/29 09:51:37;;;;;;;4.28;2.40;;;;;;;-145.50;100.00;65435.88;4975270;28;20050;-71
2023/07/29 09:54:04;;;;;;;4.07;2.50;;;;;;;-145.50;100.00;65435.88;4981156;28;20164;-70
2023/07/29 09:56:31;;;;;;;4.22;2.60;;;;;;;-145.50;100.00;65435.88;4972226;28;20715;-70
2023/07/29 09:58:58;;;;;;;3.80;2.13;;;;;;;-145.50;100.00;65435.88;4984063;28;20479;-70
2023/07/29 10:01:25;;;;;;;5.43;2.60;;;;;;;-145.50;100.00;65435.88;4968446;28;20399;-70
2023/07/29 10:03:52;;;;;;;3.42;2.20;;;;;;;-145.50;100.00;65435.88;4960363;28;20084;-71
2023/07/29 10:06:19;;;;;;;3.07;2.10;;;;;;;-145.50;100.00;65435.88;4980663;28;20061;-71
2023/07/29 10:08:49;;;;;;;3.73;2.43;;;;;;;-145.50;100.00;65435.88;4972600;28;20066;-71
2023/07/29 10:11:16;;;;;;;3.83;2.15;;;;;;;-145.50;100.00;65435.88;4992461;28;20058;-70
2023/07/29 10:13:43;;;;;;;5.00;2.47;;;;;;;-145.50;100.00;65435.88;4978776;28;20082;-68
2023/07/29 10:16:23;;;;;;;4.97;2.25;;;;;;;-145.50;100.00;65435.88;4981213;28;20518;-69
2023/07/29 10:18:51;;;;;;;3.58;2.30;;;;;;;-145.50;100.00;65435.88;4973780;28;20054;-69
2023/07/29 10:21:18;;;;;;;3.88;2.60;;;;;;;-145.50;100.00;65435.88;4983754;28;20479;-70
2023/07/29 10:23:49;;;;;;;2.80;2.00;;;;;;;-145.50;100.00;65435.88;4980857;28;20050;-68
2023/07/29 10:26:20;;;;;;;4.35;2.00;;;;;;;-145.50;100.00;65435.88;4970007;28;20050;-68
2023/07/29 10:28:51;;;;;;;2.72;1.92;;;;;;;-145.50;100.00;65435.88;4982852;28;20700;-68
2023/07/29 10:31:20;;;;;;;3.55;2.20;;;;;;;-145.50;100.00;65435.88;4970109;28;20066;-68
2023/07/29 10:33:46;;;;;;;4.05;1.92;;;;;;;-145.50;100.00;65435.88;4973736;28;20054;-69
2023/07/29 10:36:13;;;;;;;5.60;3.00;;;;;;;-145.50;100.00;65435.88;4977467;28;20090;-69
2023/07/29 10:38:40;;;;;;;5.25;2.78;;;;;;;-145.50;100.00;65435.88;4975233;28;20518;-68
2023/07/29 10:41:07;;;;;;;3.85;2.83;;;;;;;-145.50;100.00;65435.88;4984629;28;20120;-69
2023/07/29 10:43:35;;;;;;;5.32;3.20;;;;;;;-145.50;100.00;65435.88;4953463;28;20046;-68
2023/07/29 10:46:19;;;;;;;4.30;3.30;;;;;;;-145.50;100.00;65435.88;4964792;28;20050;-68
2023/07/29 10:48:57;;;;;;;3.25;2.72;;;;;;;-145.50;100.00;65435.88;4959937;28;20050;-68
2023/07/29 10:51:35;;;;;;;6.78;3.13;;;;;;;-145.50;100.00;65435.88;4983384;28;20054;-67
2023/07/29 10:54:09;;;;;;;3.35;2.80;;;;;;;-145.50;100.00;65435.88;4956831;28;20365;-68
2023/07/29 10:56:41;;;;;;;3.22;2.70;;;;;;;-145.50;100.00;65435.88;4978699;28;20061;-68
2023/07/29 10:59:11;;;;;;;3.30;2.58;;;;;;;-145.50;100.00;65435.88;4977418;28;20533;-69
2023/07/29 11:01:45;;;;;;;3.58;2.50;;;;;;;-145.50;100.00;65435.88;4978066;28;20050;-69
2023/07/29 11:04:23;;;;;;;4.32;2.42;;;;;;;-145.50;100.00;65435.88;4978593;28;20512;-68
2023/07/29 11:07:07;;;;;;;7.50;2.30;;;;;;;-145.50;100.00;65435.88;4974426;28;20452;-68
2023/07/29 11:09:56;;;;;;;6.25;2.60;;;;;;;-145.50;100.00;65435.88;4973995;28;20072;-70